createdAt,value
2019-05-29T00:01:19.821Z,12.06
2019-05-29T00:03:44.342Z,11.97
2019-05-29T00:06:12.397Z,11.91
2019-05-29T00:08:39.668Z,11.81
2019-05-29T00:11:07.965Z,11.70
2019-05-29T00:13:35.198Z,11.63
2019-05-29T00:16:02.606Z,11.59
2019-05-29T00:18:29.810Z,11.55
2019-05-29T00:20:56.910Z,11.54
2019-05-29T00:23:24.144Z,11.52
2019-05-29T00:25:51.315Z,11.51
2019-05-29T00:28:18.579Z,11.56
2019-05-29T00:30:45.877Z,11.68
2019-05-29T00:33:14.419Z,11.79
2019-05-29T00:35:41.611Z,11.86
2019-05-29T00:38:08.814Z,11.93
2019-05-29T00:40:36.171Z,12.01
2019-05-29T00:43:03.429Z,12.03
2019-05-29T00:45:30.621Z,12.01
2019-05-29T00:47:57.707Z,11.98
2019-05-29T00:50:25.166Z,11.93
2019-05-29T00:52:52.382Z,11.90
2019-05-29T00:55:19.588Z,11.86
2019-05-29T00:57:47.218Z,11.87
2019-05-29T01:00:15.492Z,11.89
2019-05-29T01:02:42.713Z,11.90
2019-05-29T01:05:10.085Z,11.93
2019-05-29T01:07:37.309Z,11.99
2019-05-29T01:10:04.831Z,11.98
2019-05-29T01:12:32.011Z,12.01
2019-05-29T01:14:59.248Z,12.03
2019-05-29T01:17:26.324Z,12.05
2019-05-29T01:19:53.509Z,12.07
2019-05-29T01:22:20.638Z,12.20
2019-05-29T01:24:47.801Z,12.19
2019-05-29T01:27:16.809Z,12.25
2019-05-29T01:29:44.336Z,12.29
2019-05-29T01:32:11.523Z,12.29
2019-05-29T01:34:38.980Z,12.26
2019-05-29T01:37:06.211Z,12.20
2019-05-29T01:39:33.401Z,12.12
2019-05-29T01:42:00.626Z,12.14
2019-05-29T01:44:28.424Z,12.19
2019-05-29T01:46:55.594Z,12.20
2019-05-29T01:49:23.840Z,12.23
2019-05-29T01:51:51.184Z,12.27
2019-05-29T01:54:19.622Z,12.37
2019-05-29T01:56:46.902Z,12.47
2019-05-29T01:59:14.019Z,12.57
2019-05-29T02:01:41.194Z,12.71
2019-05-29T02:04:08.382Z,12.71
2019-05-29T02:06:35.737Z,12.72
2019-05-29T02:09:04.539Z,12.74
2019-05-29T02:11:32.377Z,12.78
2019-05-29T02:13:59.646Z,12.87
2019-05-29T02:16:26.958Z,12.88
2019-05-29T02:18:54.129Z,12.88
2019-05-29T02:21:22.321Z,12.93
2019-05-29T02:23:49.692Z,12.93
2019-05-29T02:26:17.950Z,12.92
2019-05-29T02:28:45.445Z,12.94
2019-05-29T02:31:12.650Z,12.94
2019-05-29T02:33:40.118Z,12.95
2019-05-29T02:36:07.329Z,12.90
2019-05-29T02:38:34.486Z,12.88
2019-05-29T02:41:01.727Z,12.88
2019-05-29T02:43:30.009Z,12.87
2019-05-29T02:45:57.188Z,12.82
2019-05-29T02:48:25.090Z,12.82
2019-05-29T02:50:52.885Z,12.80
2019-05-29T02:53:20.182Z,12.77
2019-05-29T02:55:47.301Z,12.75
2019-05-29T02:58:14.531Z,12.75
2019-05-29T03:00:52.925Z,12.76
2019-05-29T03:03:21.608Z,12.69
2019-05-29T03:05:49.156Z,12.66
2019-05-29T03:08:16.340Z,12.66
2019-05-29T03:10:43.826Z,12.67
2019-05-29T03:13:11.082Z,12.64
2019-05-29T03:15:38.268Z,12.62
2019-05-29T03:18:05.360Z,12.61
2019-05-29T03:20:32.593Z,12.58
2019-05-29T03:23:01.203Z,12.61
2019-05-29T03:25:28.664Z,12.64
2019-05-29T03:27:55.718Z,12.63
2019-05-29T03:30:22.906Z,12.61
2019-05-29T03:32:49.997Z,12.50
2019-05-29T03:35:17.270Z,12.47
2019-05-29T03:37:44.433Z,12.42
2019-05-29T03:40:11.629Z,12.37
2019-05-29T03:42:39.253Z,12.33
2019-05-29T03:45:06.654Z,12.30
2019-05-29T03:47:35.087Z,12.30
2019-05-29T03:50:02.393Z,12.35
2019-05-29T03:52:30.362Z,12.34
2019-05-29T03:54:57.646Z,12.35
2019-05-29T03:57:24.806Z,12.34
2019-05-29T03:59:51.994Z,12.33
2019-05-29T04:02:19.175Z,12.35
2019-05-29T04:04:46.345Z,12.37
2019-05-29T04:07:14.100Z,12.42
2019-05-29T04:09:41.277Z,12.55
2019-05-29T04:12:08.350Z,12.58
2019-05-29T04:14:35.760Z,12.67
2019-05-29T04:17:03.119Z,12.70
2019-05-29T04:19:32.638Z,12.70
2019-05-29T04:22:06.629Z,12.68
2019-05-29T04:24:38.182Z,12.67
2019-05-29T04:27:08.528Z,12.58
2019-05-29T04:29:38.247Z,12.55
2019-05-29T04:32:05.623Z,12.82
2019-05-29T04:34:34.258Z,13.40
2019-05-29T04:37:01.866Z,13.60
2019-05-29T04:39:30.525Z,14.73
2019-05-29T04:41:57.794Z,15.36
2019-05-29T04:44:25.021Z,15.69
2019-05-29T04:47:09.481Z,15.95
2019-05-29T04:49:21.314Z,15.83
2019-05-29T04:51:48.501Z,15.31
2019-05-29T04:54:15.677Z,15.19
2019-05-29T04:56:43.040Z,15.12
2019-05-29T04:59:10.279Z,15.10
2019-05-29T05:01:37.519Z,15.17
2019-05-29T05:04:04.700Z,15.21
2019-05-29T05:06:31.831Z,15.13
2019-05-29T05:08:59.069Z,15.49
2019-05-29T05:11:26.763Z,15.88
2019-05-29T05:13:53.959Z,16.03
2019-05-29T05:16:21.167Z,15.67
2019-05-29T05:18:48.369Z,15.66
2019-05-29T05:21:15.581Z,15.63
2019-05-29T05:23:42.790Z,15.47
2019-05-29T05:26:09.982Z,15.47
2019-05-29T05:28:38.541Z,18.61
2019-05-29T05:31:05.777Z,22.39
2019-05-29T05:33:33.049Z,25.44
2019-05-29T05:36:00.284Z,27.74
2019-05-29T05:38:28.017Z,29.79
2019-05-29T05:40:55.223Z,31.71
2019-05-29T05:43:24.488Z,31.48
2019-05-29T05:45:51.483Z,30.29
2019-05-29T05:48:22.070Z,29.77
2019-05-29T05:50:49.130Z,30.59
2019-05-29T05:53:16.560Z,29.88
2019-05-29T05:55:43.800Z,30.70
2019-05-29T05:58:11.302Z,30.66
2019-05-29T06:00:39.779Z,31.96
2019-05-29T06:03:06.956Z,32.26
2019-05-29T06:05:34.098Z,33.45
2019-05-29T06:08:01.296Z,34.98
2019-05-29T06:10:28.537Z,35.09
2019-05-29T06:12:55.696Z,35.39
2019-05-29T06:15:22.890Z,36.03
2019-05-29T06:18:05.065Z,35.41
2019-05-29T06:20:19.116Z,32.35
2019-05-29T06:22:46.272Z,30.33
2019-05-29T06:25:13.886Z,28.62
2019-05-29T06:27:41.415Z,26.69
2019-05-29T06:30:09.401Z,25.44
2019-05-29T06:32:37.369Z,25.10
2019-05-29T06:35:05.730Z,24.43
2019-05-29T06:37:33.609Z,24.17
2019-05-29T06:40:00.847Z,23.87
2019-05-29T06:42:28.038Z,23.58
2019-05-29T06:44:55.230Z,25.03
2019-05-29T06:47:22.492Z,27.19
2019-05-29T06:49:49.668Z,27.59
2019-05-29T06:52:16.920Z,27.70
2019-05-29T06:54:44.239Z,27.03
2019-05-29T06:57:11.446Z,26.83
2019-05-29T06:59:38.641Z,25.93
2019-05-29T07:02:05.914Z,25.51
2019-05-29T07:04:33.110Z,26.52
2019-05-29T07:07:00.185Z,28.17
2019-05-29T07:09:27.426Z,30.98
2019-05-29T07:11:54.581Z,30.80
2019-05-29T07:14:21.796Z,29.48
2019-05-29T07:16:55.528Z,27.91
2019-05-29T07:19:25.722Z,27.32
2019-05-29T07:21:47.321Z,27.76
2019-05-29T07:24:14.772Z,28.56
2019-05-29T07:26:43.570Z,31.15
2019-05-29T07:29:11.281Z,34.88
2019-05-29T07:31:38.907Z,36.19
2019-05-29T07:34:06.081Z,37.85
2019-05-29T07:36:33.294Z,39.94
2019-05-29T07:39:03.526Z,42.30
2019-05-29T07:41:29.813Z,43.39
2019-05-29T07:43:57.672Z,44.25
2019-05-29T07:46:24.884Z,44.18
2019-05-29T07:48:52.026Z,43.93
2019-05-29T07:51:19.201Z,43.91
2019-05-29T07:53:46.464Z,44.83
2019-05-29T07:56:22.216Z,45.88
2019-05-29T07:58:49.107Z,45.15
2019-05-29T08:01:13.822Z,45.91
2019-05-29T08:03:43.304Z,46.98
2019-05-29T08:06:10.733Z,47.43
2019-05-29T08:08:39.085Z,47.25
2019-05-29T08:11:06.327Z,46.72
2019-05-29T08:13:33.518Z,43.66
2019-05-29T08:16:02.932Z,41.97
2019-05-29T08:18:29.804Z,39.28
2019-05-29T08:20:56.904Z,35.85
2019-05-29T08:23:24.264Z,31.69
2019-05-29T08:25:51.886Z,30.34
2019-05-29T08:28:19.172Z,29.89
2019-05-29T08:30:51.762Z,29.13
2019-05-29T08:33:15.616Z,28.13
2019-05-29T08:35:43.100Z,28.30
2019-05-29T08:38:10.346Z,29.88
2019-05-29T08:40:37.444Z,30.27
2019-05-29T08:43:04.592Z,27.83
2019-05-29T08:45:31.822Z,27.85
2019-05-29T08:47:58.889Z,28.73
2019-05-29T08:50:26.072Z,29.79
2019-05-29T08:52:53.279Z,29.67
2019-05-29T08:55:20.712Z,29.28
2019-05-29T08:57:48.466Z,30.62
2019-05-29T09:00:16.469Z,32.29
2019-05-29T09:02:44.666Z,35.11
2019-05-29T09:05:11.947Z,35.97
2019-05-29T09:07:39.184Z,35.10
2019-05-29T09:10:07.207Z,34.69
2019-05-29T09:12:34.413Z,36.15
2019-05-29T09:15:01.702Z,37.98
2019-05-29T09:17:28.853Z,39.77
2019-05-29T09:19:56.020Z,40.23
2019-05-29T09:22:23.148Z,40.36
2019-05-29T09:24:50.366Z,41.45
2019-05-29T09:27:17.528Z,42.33
2019-05-29T09:29:44.738Z,42.38
2019-05-29T09:32:12.141Z,41.50
2019-05-29T09:34:39.296Z,39.76
2019-05-29T09:37:06.524Z,38.45
2019-05-29T09:39:33.734Z,36.49
2019-05-29T09:42:00.953Z,35.58
2019-05-29T09:44:38.366Z,37.29
2019-05-29T09:46:57.679Z,37.68
2019-05-29T09:49:25.943Z,38.49
2019-05-29T09:51:54.143Z,38.08
2019-05-29T09:54:21.523Z,38.67
2019-05-29T09:56:49.111Z,36.79
2019-05-29T09:59:16.339Z,34.86
2019-05-29T10:01:43.511Z,34.53
2019-05-29T10:04:10.609Z,33.59
2019-05-29T10:06:37.849Z,32.73
2019-05-29T10:09:06.559Z,31.69
2019-05-29T10:11:33.987Z,30.17
2019-05-29T10:14:02.615Z,28.01
2019-05-29T10:16:29.969Z,25.32
2019-05-29T10:18:58.561Z,23.45
2019-05-29T10:23:56.655Z,22.58
2019-05-29T10:26:24.756Z,21.98
2019-05-29T10:27:51.670Z,22.77
2019-05-29T10:29:05.454Z,22.11
2019-05-29T10:31:21.169Z,22.46
2019-05-29T10:33:48.368Z,22.80
2019-05-29T10:36:15.570Z,23.21
2019-05-29T10:38:44.322Z,23.50
2019-05-29T10:41:11.500Z,23.41
2019-05-29T10:43:38.733Z,22.67
2019-05-29T10:46:05.799Z,22.81
2019-05-29T10:48:33.363Z,22.32
2019-05-29T10:51:00.504Z,21.84
2019-05-29T10:53:27.660Z,21.63
2019-05-29T10:55:55.015Z,21.50
2019-05-29T10:58:22.369Z,21.38
2019-05-29T11:00:49.534Z,21.47
2019-05-29T11:03:16.581Z,21.12
2019-05-29T11:05:43.695Z,20.99
2019-05-29T11:08:10.858Z,21.19
2019-05-29T11:10:38.030Z,21.63
2019-05-29T11:13:05.615Z,21.97
2019-05-29T11:15:32.882Z,22.33
2019-05-29T11:17:59.930Z,22.09
2019-05-29T11:20:27.391Z,21.95
2019-05-29T11:22:55.654Z,21.51
2019-05-29T11:25:27.401Z,21.22
2019-05-29T11:27:53.170Z,20.90
2019-05-29T11:30:20.737Z,20.69
2019-05-29T11:32:50.205Z,20.68
2019-05-29T11:35:17.041Z,20.78
2019-05-29T11:37:44.245Z,20.86
2019-05-29T11:40:11.706Z,21.22
2019-05-29T11:42:38.925Z,21.59
2019-05-29T11:45:06.702Z,21.90
2019-05-29T11:47:33.962Z,21.52
2019-05-29T11:50:16.295Z,21.27
2019-05-29T11:52:42.508Z,20.36
2019-05-29T11:55:03.320Z,20.48
2019-05-29T11:57:28.873Z,20.86
2019-05-29T12:00:00.108Z,21.12
2019-05-29T12:02:25.432Z,21.60
2019-05-29T12:04:53.113Z,21.91
2019-05-29T12:07:20.296Z,21.87
2019-05-29T12:09:47.509Z,21.01
2019-05-29T12:12:14.711Z,20.31
2019-05-29T12:14:59.170Z,20.50
2019-05-29T12:17:10.958Z,21.03
2019-05-29T12:19:38.516Z,21.63
2019-05-29T12:22:05.677Z,21.84
2019-05-29T12:24:32.884Z,21.70
2019-05-29T12:27:01.037Z,21.80
2019-05-29T12:29:28.190Z,22.01
2019-05-29T12:34:35.729Z,21.03
2019-05-29T12:43:27.177Z,20.79
2019-05-29T12:49:07.451Z,20.88
2019-05-29T12:52:08.244Z,21.06
2019-05-29T12:54:35.589Z,20.96
2019-05-29T12:57:04.270Z,20.66
2019-05-29T12:59:43.095Z,20.35
2019-05-29T13:02:21.402Z,20.00
2019-05-29T13:05:06.929Z,19.96
2019-05-29T13:13:17.563Z,20.80
2019-05-29T13:15:44.726Z,21.25
2019-05-29T13:18:11.800Z,21.63
2019-05-29T13:20:39.260Z,21.86
2019-05-29T13:23:07.370Z,22.17
2019-05-29T13:25:55.678Z,22.44
2019-05-29T13:28:24.708Z,22.66
2019-05-29T13:33:53.184Z,22.06
2019-05-29T13:36:48.723Z,21.58
2019-05-29T13:39:21.822Z,21.56
2019-05-29T13:41:49.023Z,21.31
2019-05-29T13:47:17.618Z,21.49
2019-05-29T13:52:44.138Z,22.06
2019-05-29T13:58:12.261Z,23.12
2019-05-29T14:00:39.447Z,23.43
2019-05-29T14:09:27.393Z,23.61
2019-05-29T14:12:14.070Z,23.52
2019-05-29T14:14:41.222Z,23.85
2019-05-29T14:17:08.854Z,23.91
2019-05-29T14:23:25.477Z,23.79
2019-05-29T14:25:52.703Z,23.99
2019-05-29T14:28:20.085Z,24.19
2019-05-29T14:30:47.373Z,23.83
2019-05-29T14:33:15.376Z,23.14
2019-05-29T14:36:31.326Z,22.62
2019-05-29T14:38:58.546Z,22.39
2019-05-29T14:41:25.698Z,22.28
2019-05-29T14:43:52.932Z,22.31
2019-05-29T14:49:39.959Z,21.93
2019-05-29T14:52:08.614Z,21.79
2019-05-29T14:54:42.841Z,21.63
2019-05-29T14:57:25.640Z,21.62
2019-05-29T14:59:52.286Z,21.97
2019-05-29T15:05:53.453Z,22.56
2019-05-29T15:08:20.655Z,22.40
2019-05-29T15:10:47.824Z,22.26
2019-05-29T15:13:15.841Z,21.50
2019-05-29T15:18:22.085Z,21.06
2019-05-29T15:21:29.983Z,20.96
2019-05-29T15:23:57.472Z,20.48
2019-05-29T15:26:24.664Z,19.94
2019-05-29T15:28:53.691Z,19.64
2019-05-29T15:31:40.395Z,19.66
2019-05-29T15:34:08.212Z,19.49
2019-05-29T15:36:57.032Z,19.58
2019-05-29T15:39:24.569Z,19.62
2019-05-29T15:41:52.082Z,19.70
2019-05-29T15:47:20.298Z,19.80
2019-05-29T15:49:47.461Z,19.81
2019-05-29T15:55:34.339Z,19.94
2019-05-29T16:01:31.054Z,19.43
2019-05-29T16:03:58.619Z,19.23
2019-05-29T16:06:25.871Z,19.26
2019-05-29T16:08:53.105Z,19.27
2019-05-29T16:11:20.280Z,19.23
2019-05-29T16:14:28.342Z,19.21
2019-05-29T16:16:55.593Z,19.29
2019-05-29T16:19:23.233Z,19.61
2019-05-29T16:21:50.469Z,19.32
2019-05-29T16:24:19.016Z,19.31
2019-05-29T16:27:08.393Z,19.34
2019-05-29T16:29:31.387Z,19.38
2019-05-29T16:31:58.964Z,19.42
2019-05-29T16:37:46.589Z,19.39
2019-05-29T16:46:17.632Z,19.28
2019-05-29T16:48:53.360Z,19.20
2019-05-29T16:54:21.517Z,18.91
2019-05-29T16:56:48.706Z,19.02
2019-05-29T17:02:17.732Z,19.09
2019-05-29T17:05:46.518Z,19.13
2019-05-29T17:11:27.597Z,19.09
2019-05-29T17:13:55.154Z,19.05
2019-05-29T17:17:03.206Z,18.83
2019-05-29T17:22:50.165Z,18.56
2019-05-29T17:25:18.865Z,18.39
2019-05-29T17:27:56.020Z,18.33
2019-05-29T17:34:14.884Z,18.34
2019-05-29T17:36:42.125Z,18.41
2019-05-29T17:39:09.364Z,18.56
2019-05-29T17:41:36.666Z,18.54
2019-05-29T17:44:06.029Z,18.56
2019-05-29T17:46:33.228Z,18.53
2019-05-29T17:49:01.045Z,18.57
2019-05-29T17:51:28.566Z,18.59
2019-05-29T17:53:55.662Z,18.68
2019-05-29T17:56:32.244Z,18.72
2019-05-29T17:58:52.040Z,18.73
2019-05-29T18:01:19.992Z,18.76
2019-05-29T18:03:47.715Z,18.81
2019-05-29T18:06:16.198Z,18.94
2019-05-29T18:08:43.439Z,18.92
2019-05-29T18:11:10.714Z,18.96
2019-05-29T18:13:38.567Z,18.92
2019-05-29T18:16:05.774Z,18.92
2019-05-29T18:18:32.960Z,18.95
2019-05-29T18:21:00.052Z,18.90
2019-05-29T18:23:28.240Z,18.83
2019-05-29T18:25:55.543Z,18.97
2019-05-29T18:28:24.040Z,19.04
2019-05-29T18:30:51.499Z,19.27
2019-05-29T18:33:18.710Z,19.48
2019-05-29T18:35:46.034Z,19.58
2019-05-29T18:38:13.371Z,19.43
2019-05-29T18:40:40.832Z,19.13
2019-05-29T18:43:08.020Z,18.75
2019-05-29T18:45:35.112Z,18.50
2019-05-29T18:48:02.592Z,18.23
2019-05-29T18:50:29.775Z,18.08
2019-05-29T18:52:57.181Z,17.86
2019-05-29T18:55:24.928Z,17.74
2019-05-29T18:57:52.187Z,17.66
2019-05-29T19:00:21.379Z,17.45
2019-05-29T19:02:48.834Z,17.21
2019-05-29T19:05:16.056Z,16.99
2019-05-29T19:07:43.251Z,16.80
2019-05-29T19:10:11.219Z,16.61
2019-05-29T19:12:38.489Z,16.48
2019-05-29T19:15:06.298Z,16.77
2019-05-29T19:17:33.889Z,16.74
2019-05-29T19:20:01.228Z,16.54
2019-05-29T19:22:28.517Z,16.46
2019-05-29T19:24:56.368Z,16.34
2019-05-29T19:27:34.096Z,16.27
2019-05-29T19:29:52.969Z,16.17
2019-05-29T19:32:20.217Z,16.07
2019-05-29T19:34:47.704Z,15.96
2019-05-29T19:37:15.192Z,16.18
2019-05-29T19:39:42.833Z,16.20
2019-05-29T19:42:10.385Z,16.03
2019-05-29T19:44:37.593Z,15.88
2019-05-29T19:47:04.812Z,15.62
2019-05-29T19:49:32.999Z,15.43
2019-05-29T19:52:00.286Z,15.39
2019-05-29T19:54:27.641Z,15.28
2019-05-29T19:56:54.972Z,15.21
2019-05-29T19:59:22.162Z,15.02
2019-05-29T20:01:49.591Z,14.93
2019-05-29T20:04:17.039Z,14.81
2019-05-29T20:06:44.633Z,14.62
2019-05-29T20:09:11.843Z,14.49
2019-05-29T20:11:39.499Z,14.41
2019-05-29T20:14:07.839Z,14.56
2019-05-29T20:16:36.245Z,14.60
2019-05-29T20:19:03.754Z,14.46
2019-05-29T20:21:32.639Z,14.46
2019-05-29T20:24:00.413Z,14.35
2019-05-29T20:26:29.053Z,14.26
2019-05-29T20:28:58.300Z,14.11
2019-05-29T20:31:26.570Z,14.01
2019-05-29T20:33:53.758Z,13.96
2019-05-29T20:36:20.969Z,13.93
2019-05-29T20:38:48.373Z,13.82
2019-05-29T20:41:15.610Z,13.72
2019-05-29T20:43:42.900Z,13.80
2019-05-29T20:46:10.142Z,13.69
2019-05-29T20:48:38.750Z,13.71
2019-05-29T20:51:06.082Z,13.70
2019-05-29T20:53:33.481Z,13.64
2019-05-29T20:56:00.746Z,13.67
2019-05-29T20:58:27.924Z,13.84
2019-05-29T21:00:55.326Z,13.96
2019-05-29T21:03:22.542Z,14.01
2019-05-29T21:05:50.142Z,14.07
2019-05-29T21:08:17.503Z,14.15
2019-05-29T21:10:44.669Z,14.15
2019-05-29T21:13:12.198Z,14.07
2019-05-29T21:15:39.718Z,14.02
2019-05-29T21:18:07.262Z,13.94
2019-05-29T21:20:34.460Z,13.91
2019-05-29T21:23:02.248Z,13.93
2019-05-29T21:25:29.510Z,13.96
2019-05-29T21:27:56.700Z,13.83
2019-05-29T21:30:24.198Z,13.72
2019-05-29T21:32:51.565Z,13.61
2019-05-29T21:35:18.773Z,13.54
2019-05-29T21:37:46.671Z,13.55
2019-05-29T21:40:14.150Z,13.58
2019-05-29T21:42:42.766Z,13.55
2019-05-29T21:45:10.536Z,13.58
2019-05-29T21:47:38.892Z,13.65
2019-05-29T21:50:06.275Z,13.73
2019-05-29T21:52:33.874Z,13.90
2019-05-29T21:55:01.506Z,14.00
2019-05-29T21:57:28.894Z,14.07
2019-05-29T21:59:56.224Z,14.18
2019-05-29T22:02:23.729Z,14.26
2019-05-29T22:04:51.109Z,14.38
2019-05-29T22:07:18.496Z,14.42
2019-05-29T22:09:45.662Z,14.54
2019-05-29T22:12:13.524Z,14.54
2019-05-29T22:14:41.015Z,14.70
2019-05-29T22:17:08.148Z,14.65
2019-05-29T22:19:35.214Z,14.58
2019-05-29T22:22:02.460Z,14.44
2019-05-29T22:24:29.642Z,14.30
2019-05-29T22:26:57.325Z,14.12
2019-05-29T22:29:24.784Z,13.95
2019-05-29T22:31:55.405Z,13.77
2019-05-29T22:34:23.339Z,13.68
2019-05-29T22:36:51.442Z,13.66
2019-05-29T22:39:18.685Z,13.57
2019-05-29T22:41:46.925Z,13.41
2019-05-29T22:44:14.449Z,13.24
2019-05-29T22:46:41.621Z,13.07
2019-05-29T22:49:08.799Z,12.96
2019-05-29T22:51:35.988Z,12.89
2019-05-29T22:54:03.712Z,12.82
2019-05-29T22:56:30.814Z,12.87
2019-05-29T22:59:00.052Z,12.76
2019-05-29T23:01:27.397Z,12.79
2019-05-29T23:03:55.784Z,12.79
2019-05-29T23:06:23.311Z,12.81
2019-05-29T23:08:50.528Z,12.73
2019-05-29T23:11:17.608Z,12.64
2019-05-29T23:13:45.263Z,12.57
2019-05-29T23:16:12.582Z,12.50
2019-05-29T23:18:39.747Z,12.41
2019-05-29T23:21:06.979Z,12.33
2019-05-29T23:23:34.548Z,12.29
2019-05-29T23:26:02.947Z,12.21
2019-05-29T23:28:30.730Z,12.19
2019-05-29T23:30:58.791Z,12.23
2019-05-29T23:33:26.472Z,12.17
2019-05-29T23:35:54.800Z,12.15
2019-05-29T23:38:22.212Z,12.12
2019-05-29T23:40:49.429Z,12.17
2019-05-29T23:43:16.536Z,12.16
2019-05-29T23:45:43.856Z,12.10
2019-05-29T23:51:29.780Z,12.03
2019-05-29T23:53:57.713Z,12.04
2019-05-29T23:56:45.872Z,11.98
2019-05-29T23:59:13.105Z,11.89
